Time;durP1;ratioP1;P1;durP2;ratioP2;P2;SDS_P1;SDS_P2;PMS_P1;PMS_P2;Temp;Humidity;BMP_temperature;BMP_pressure;BME280_temperature;BME280_humidity;BME280_pressure;Samples;Min_cycle;Max_cycle;Signal;HPM_P1;HPM_P2
2022/12/05 00:02:04;;;;;;;36.78;14.82;;;10.30;68.50;;;;;;6273395;28;20040;-81
2022/12/05 00:05:05;;;;;;;43.67;16.70;;;10.30;68.60;;;;;;6272413;28;20449;-81
2022/12/05 00:08:06;;;;;;;35.90;14.40;;;10.30;68.70;;;;;;6272396;28;20469;-81
2022/12/05 00:11:12;;;;;;;41.75;16.98;;;10.30;68.50;;;;;;6272663;28;20047;-80
2022/12/05 00:14:13;;;;;;;34.20;14.90;;;10.30;68.60;;;;;;6292715;28;20465;-80
2022/12/05 00:17:14;;;;;;;42.42;16.25;;;10.30;68.60;;;;;;6296131;28;20123;-81
2022/12/05 00:20:15;;;;;;;35.78;14.43;;;10.30;68.70;;;;;;6275661;28;20519;-82
2022/12/05 00:23:16;;;;;;;49.10;16.58;;;10.30;68.90;;;;;;6296163;28;20162;-82
2022/12/05 00:26:17;;;;;;;44.03;15.75;;;10.20;68.90;;;;;;6265915;28;20083;-82
2022/12/05 00:29:18;;;;;;;38.95;15.40;;;10.20;69.10;;;;;;6246868;28;20091;-80
2022/12/05 00:32:19;;;;;;;35.50;14.43;;;10.20;69.10;;;;;;6266768;28;20068;-82
2022/12/05 00:35:20;;;;;;;37.33;14.50;;;10.20;69.00;;;;;;6294280;28;20060;-81
2022/12/05 00:38:20;;;;;;;46.85;14.93;;;10.20;69.20;;;;;;6295504;28;20033;-82
2022/12/05 00:41:24;;;;;;;41.00;15.02;;;10.20;69.20;;;;;;6272270;28;20644;-81
2022/12/05 00:44:24;;;;;;;40.17;15.88;;;10.20;69.30;;;;;;6274833;28;20462;-81
2022/12/05 00:47:25;;;;;;;46.00;15.23;;;10.20;69.30;;;;;;6268205;28;20086;-81
2022/12/05 00:50:26;;;;;;;38.90;13.85;;;10.20;69.50;;;;;;6250088;28;20064;-81
2022/12/05 00:53:27;;;;;;;47.03;16.77;;;10.20;69.30;;;;;;6244950;28;20045;-80
2022/12/05 00:56:29;;;;;;;41.28;15.52;;;10.20;69.30;;;;;;6218942;28;20362;-80
2022/12/05 00:59:30;;;;;;;39.45;15.48;;;10.20;69.30;;;;;;6250580;28;20037;-81
2022/12/05 01:02:31;;;;;;;45.33;15.90;;;10.20;69.10;;;;;;6278220;28;20052;-82
2022/12/05 01:05:33;;;;;;;46.05;16.60;;;10.20;69.10;;;;;;6247168;28;20037;-81
2022/12/05 01:08:35;;;;;;;52.97;18.45;;;10.10;69.10;;;;;;6253911;28;20124;-81
2022/12/05 01:11:36;;;;;;;52.50;18.65;;;10.20;69.30;;;;;;6282432;28;20061;-80
2022/12/05 01:14:37;;;;;;;45.85;16.00;;;10.10;69.20;;;;;;6279912;28;20049;-81
2022/12/05 01:17:38;;;;;;;51.28;16.35;;;10.10;69.40;;;;;;6255432;28;20038;-81
2022/12/05 01:20:40;;;;;;;54.22;18.48;;;10.20;69.50;;;;;;6254542;28;20060;-81
2022/12/05 01:23:41;;;;;;;40.92;15.88;;;10.20;69.50;;;;;;6264710;28;20037;-81
2022/12/05 01:26:43;;;;;;;41.53;15.10;;;10.20;69.30;;;;;;6260929;28;20052;-81
2022/12/05 01:29:44;;;;;;;42.78;15.73;;;10.20;69.30;;;;;;6328484;28;20735;-81
2022/12/05 01:32:45;;;;;;;37.22;14.30;;;10.20;69.20;;;;;;6267116;28;20051;-80
2022/12/05 01:35:46;;;;;;;40.90;14.68;;;10.20;69.30;;;;;;6274066;28;20029;-80
2022/12/05 01:38:47;;;;;;;48.30;14.35;;;10.20;69.20;;;;;;6276721;28;20449;-81
2022/12/05 01:41:49;;;;;;;38.22;13.30;;;10.10;69.10;;;;;;6269999;28;20033;-81
2022/12/05 01:44:50;;;;;;;43.78;13.23;;;10.10;69.10;;;;;;6277292;28;20709;-82
2022/12/05 01:47:53;;;;;;;33.30;11.98;;;10.00;69.10;;;;;;6273394;28;20428;-81
2022/12/05 01:50:54;;;;;;;42.72;13.30;;;10.10;69.20;;;;;;6267193;28;20076;-81
2022/12/05 01:53:56;;;;;;;38.67;13.07;;;10.10;69.20;;;;;;6272386;28;20040;-81
2022/12/05 01:57:05;;;;;;;37.50;13.07;;;10.10;69.20;;;;;;6255921;28;20029;-82
2022/12/05 02:00:17;;;;;;;39.78;13.23;;;10.10;69.20;;;;;;6284873;28;20049;-81
2022/12/05 02:03:19;;;;;;;29.38;10.98;;;10.10;69.10;;;;;;6274170;28;20473;-79
2022/12/05 02:06:21;;;;;;;39.83;11.98;;;10.10;69.00;;;;;;6242102;28;20042;-81
2022/12/05 02:09:22;;;;;;;36.25;13.13;;;10.10;69.00;;;;;;6244886;28;20052;-81
2022/12/05 02:12:24;;;;;;;34.05;11.10;;;10.00;68.90;;;;;;6265611;28;20029;-81
2022/12/05 02:15:49;;;;;;;34.55;12.10;;;10.00;69.10;;;;;;6266498;28;20041;-80
2022/12/05 02:19:17;;;;;;;39.63;12.27;;;9.90;69.10;;;;;;6248182;28;20030;-81
2022/12/05 02:22:37;;;;;;;43.25;12.75;;;9.90;69.20;;;;;;6269431;28;20052;-81
2022/12/05 02:26:10;;;;;;;31.95;12.00;;;9.90;69.30;;;;;;6290399;28;20460;-82
2022/12/05 02:29:24;;;;;;;32.13;10.82;;;9.90;69.30;;;;;;6275303;28;20185;-81
2022/12/05 02:32:37;;;;;;;29.50;10.60;;;9.80;69.10;;;;;;6282851;28;20364;-80
2022/12/05 02:35:49;;;;;;;44.28;11.43;;;9.90;69.20;;;;;;6274288;28;20653;-80
2022/12/05 02:39:19;;;;;;;37.10;12.38;;;9.80;69.20;;;;;;6294120;28;20055;-81
2022/12/05 02:42:30;;;;;;;34.33;10.90;;;9.80;69.20;;;;;;6283291;28;20032;-82
2022/12/05 02:45:33;;;;;;;39.28;10.80;;;9.90;69.40;;;;;;6263765;28;20055;-81
2022/12/05 02:48:37;;;;;;;38.47;13.43;;;9.90;69.30;;;;;;6279687;28;20032;-82
2022/12/05 02:51:42;;;;;;;37.58;11.55;;;9.90;69.30;;;;;;6296177;28;20035;-82
2022/12/05 02:54:47;;;;;;;42.70;12.23;;;9.90;69.20;;;;;;6306195;28;20389;-80
2022/12/05 02:57:53;;;;;;;31.52;10.93;;;9.90;69.40;;;;;;6253877;28;20056;-82
2022/12/05 03:00:57;;;;;;;39.13;12.60;;;9.80;69.30;;;;;;6303407;28;20029;-81
2022/12/05 03:04:01;;;;;;;36.33;11.05;;;9.90;69.40;;;;;;6275703;28;20106;-80
2022/12/05 03:07:12;;;;;;;35.08;10.82;;;9.80;69.30;;;;;;6271298;28;20048;-81
2022/12/05 03:10:15;;;;;;;34.67;11.77;;;9.80;69.30;;;;;;6270632;28;20060;-80
2022/12/05 03:13:50;;;;;;;45.17;12.70;;;9.80;69.30;;;;;;6287246;28;20041;-80
2022/12/05 03:16:55;;;;;;;41.42;10.98;;;9.80;69.30;;;;;;6128928;28;20041;-80
2022/12/05 03:20:08;;;;;;;39.40;11.25;;;9.80;69.30;;;;;;6144701;28;20043;-80
2022/12/05 03:23:26;;;;;;;33.75;10.25;;;9.80;69.30;;;;;;6153562;28;20384;-80
2022/12/05 03:26:43;;;;;;;21.97;8.27;;;9.80;69.20;;;;;;6188347;28;20042;-80
2022/12/05 03:29:54;;;;;;;33.47;10.20;;;9.80;69.20;;;;;;6162047;28;20066;-80
2022/12/05 03:33:11;;;;;;;32.30;9.68;;;9.70;69.10;;;;;;6176296;28;20043;-80
2022/12/05 03:36:18;;;;;;;19.10;7.82;;;9.70;69.10;;;;;;6188676;28;20023;-79
2022/12/05 03:39:24;;;;;;;26.33;9.25;;;9.70;69.20;;;;;;6155410;28;20731;-81
2022/12/05 03:42:32;;;;;;;18.48;7.70;;;9.70;69.10;;;;;;6182507;28;20030;-81
2022/12/05 03:45:50;;;;;;;18.60;7.38;;;9.70;69.10;;;;;;6172793;28;20169;-82
2022/12/05 03:49:05;;;;;;;23.50;8.13;;;9.70;69.00;;;;;;6186754;28;20023;-81
2022/12/05 03:52:15;;;;;;;25.90;8.38;;;9.70;68.90;;;;;;6167543;28;20057;-81
2022/12/05 03:55:17;;;;;;;16.75;6.00;;;9.70;68.90;;;;;;6271224;28;20038;-81
2022/12/05 03:58:45;;;;;;;15.15;7.40;;;9.60;68.70;;;;;;6283165;28;20350;-80
2022/12/05 04:01:48;;;;;;;17.42;6.05;;;9.60;68.60;;;;;;6237791;28;20053;-81
2022/12/05 04:05:00;;;;;;;15.98;6.82;;;9.70;68.70;;;;;;6226380;28;20030;-81
2022/12/05 04:08:06;;;;;;;14.05;5.57;;;9.60;68.40;;;;;;6218779;28;20386;-81
2022/12/05 04:11:13;;;;;;;10.38;4.43;;;9.60;68.40;;;;;;6220010;28;20422;-81
2022/12/05 04:14:21;;;;;;;10.23;4.70;;;9.60;68.20;;;;;;6226264;28;20046;-81
2022/12/05 04:17:33;;;;;;;21.80;5.30;;;9.60;68.00;;;;;;6217882;28;20026;-80
2022/12/05 04:27:53;;;;;;;12.88;5.10;;;9.50;67.60;;;;;;6210032;28;20041;-81
2022/12/05 04:31:06;;;;;;;15.52;6.53;;;9.50;67.80;;;;;;6149932;28;20527;-81
2022/12/05 04:34:11;;;;;;;15.57;6.85;;;9.50;67.90;;;;;;6163279;28;20456;-80
2022/12/05 04:37:15;;;;;;;14.65;5.75;;;9.50;68.60;;;;;;6153082;28;20045;-81
2022/12/05 04:40:27;;;;;;;15.95;6.22;;;9.50;67.70;;;;;;6235755;28;20103;-81
2022/12/05 04:43:32;;;;;;;15.10;5.43;;;9.60;67.70;;;;;;6231364;28;20481;-80
2022/12/05 04:46:34;;;;;;;13.82;6.35;;;9.60;67.50;;;;;;6221496;28;20112;-80
2022/12/05 04:49:35;;;;;;;15.05;6.90;;;9.50;67.30;;;;;;6242268;28;20093;-80
2022/12/05 04:52:38;;;;;;;13.27;5.63;;;9.60;67.40;;;;;;6209493;28;20139;-80
2022/12/05 04:55:45;;;;;;;12.85;5.50;;;9.50;67.50;;;;;;6226722;28;20037;-80
2022/12/05 04:58:46;;;;;;;15.65;6.18;;;9.50;67.40;;;;;;6215718;28;20034;-80
2022/12/05 05:01:54;;;;;;;18.92;7.15;;;9.50;67.50;;;;;;6224252;28;20046;-79
2022/12/05 05:04:57;;;;;;;12.15;5.65;;;9.50;67.40;;;;;;6223647;28;20124;-80
2022/12/05 05:07:58;;;;;;;12.90;5.32;;;9.50;67.40;;;;;;6207218;28;20025;-81
2022/12/05 05:11:18;;;;;;;15.00;5.35;;;9.50;67.40;;;;;;6254555;28;20461;-81
2022/12/05 05:14:19;;;;;;;16.38;5.53;;;9.50;67.20;;;;;;6265588;28;20492;-80
2022/12/05 05:17:20;;;;;;;11.23;5.22;;;9.50;67.10;;;;;;6277004;28;20047;-80
2022/12/05 05:20:23;;;;;;;10.10;4.88;;;9.40;67.10;;;;;;6240936;28;20037;-81
2022/12/05 05:23:24;;;;;;;8.50;3.83;;;9.40;67.10;;;;;;6241779;28;20362;-80
2022/12/05 05:26:27;;;;;;;11.38;4.53;;;9.50;67.10;;;;;;6263484;28;20365;-81
2022/12/05 05:29:28;;;;;;;8.95;3.83;;;9.40;66.80;;;;;;6281307;28;20051;-81
2022/12/05 05:32:31;;;;;;;10.02;4.93;;;9.40;66.70;;;;;;6290733;28;20116;-80
2022/12/05 05:35:36;;;;;;;9.25;4.15;;;9.40;66.80;;;;;;6268242;28;20541;-80
2022/12/05 05:38:43;;;;;;;9.00;3.85;;;9.30;66.80;;;;;;6278506;28;20025;-80
2022/12/05 05:41:44;;;;;;;8.73;4.65;;;9.30;67.00;;;;;;6272706;28;20111;-82
2022/12/05 05:44:45;;;;;;;6.20;3.63;;;9.40;67.10;;;;;;6268171;28;20086;-82
2022/12/05 05:47:48;;;;;;;12.25;3.63;;;9.40;66.80;;;;;;6264552;28;20036;-80
2022/12/05 05:50:49;;;;;;;5.40;3.17;;;9.40;66.60;;;;;;6301831;28;20135;-80
2022/12/05 05:53:50;;;;;;;10.88;3.38;;;9.30;66.40;;;;;;6298845;28;20033;-80
2022/12/05 05:56:51;;;;;;;8.70;3.53;;;9.30;66.40;;;;;;6285914;28;20035;-80
2022/12/05 05:59:51;;;;;;;3.47;1.95;;;9.30;66.60;;;;;;6291874;28;20465;-80
2022/12/05 06:02:52;;;;;;;6.38;2.42;;;9.30;66.40;;;;;;6254986;28;20461;-80
2022/12/05 06:05:57;;;;;;;8.27;4.07;;;9.20;66.10;;;;;;6260875;28;20048;-77
2022/12/05 06:08:58;;;;;;;6.60;3.10;;;9.20;66.20;;;;;;6270002;28;20059;-78
2022/12/05 06:11:59;;;;;;;6.88;3.10;;;9.20;66.40;;;;;;6289777;28;20315;-79
2022/12/05 06:15:00;;;;;;;5.82;2.92;;;9.20;66.40;;;;;;6240853;28;20048;-79
2022/12/05 06:18:01;;;;;;;7.65;1.98;;;9.20;66.20;;;;;;6284596;28;20421;-80
2022/12/05 06:21:04;;;;;;;3.65;1.60;;;9.20;65.90;;;;;;6291843;28;20045;-79
2022/12/05 06:24:05;;;;;;;4.88;1.58;;;9.20;65.70;;;;;;6268334;28;20033;-79
2022/12/05 06:27:07;;;;;;;4.47;2.28;;;9.20;65.70;;;;;;6286542;28;20037;-80
2022/12/05 06:30:08;;;;;;;9.40;3.28;;;9.20;65.60;;;;;;6278320;28;20044;-80
2022/12/05 06:33:10;;;;;;;5.20;2.65;;;9.20;65.60;;;;;;6305042;28;20044;-81
2022/12/05 06:36:17;;;;;;;4.60;2.15;;;9.10;65.60;;;;;;6280073;28;20052;-81
2022/12/05 06:39:18;;;;;;;5.85;2.15;;;9.10;65.40;;;;;;6300303;28;20079;-82
2022/12/05 06:42:21;;;;;;;7.28;3.20;;;9.10;65.40;;;;;;6264661;28;20041;-81
2022/12/05 06:45:22;;;;;;;5.43;2.67;;;9.20;65.70;;;;;;6268998;28;20097;-84
2022/12/05 06:48:23;;;;;;;3.63;1.80;;;9.10;65.60;;;;;;6268699;28;20378;-81
2022/12/05 06:51:24;;;;;;;4.78;2.63;;;9.10;65.40;;;;;;6259841;28;20054;-81
2022/12/05 06:54:25;;;;;;;4.45;2.67;;;9.00;65.30;;;;;;6269129;28;20503;-82
2022/12/05 06:57:29;;;;;;;7.28;2.10;;;9.10;65.50;;;;;;6276701;28;20029;-80
2022/12/05 07:03:51;;;;;;;5.80;2.10;;;9.00;65.50;;;;;;6283257;28;20042;-81
2022/12/05 07:06:54;;;;;;;4.28;2.33;;;9.00;65.50;;;;;;6242186;28;20060;-80
2022/12/05 07:09:55;;;;;;;6.65;3.55;;;9.00;65.40;;;;;;6240562;28;20490;-80
2022/12/05 07:12:57;;;;;;;6.05;3.15;;;9.00;65.40;;;;;;6260061;28;20049;-81
2022/12/05 07:15:59;;;;;;;8.15;3.65;;;9.00;65.50;;;;;;6259384;28;20147;-83
2022/12/05 07:18:59;;;;;;;11.95;4.45;;;9.00;65.50;;;;;;6253270;28;20029;-82
2022/12/05 07:22:00;;;;;;;7.28;3.92;;;9.00;65.40;;;;;;6250552;28;20059;-82
2022/12/05 07:25:02;;;;;;;9.88;3.65;;;9.00;65.30;;;;;;6251304;28;20265;-81
2022/12/05 07:28:03;;;;;;;14.27;5.25;;;9.10;65.50;;;;;;6259307;28;20032;-81
2022/12/05 07:31:09;;;;;;;9.73;3.97;;;9.10;65.50;;;;;;6233621;28;20414;-82
2022/12/05 07:34:10;;;;;;;10.45;4.95;;;9.10;65.50;;;;;;6282835;28;20044;-81
2022/12/05 07:37:12;;;;;;;10.63;4.47;;;9.10;65.40;;;;;;6277742;28;20473;-81
2022/12/05 07:40:13;;;;;;;9.98;5.00;;;9.20;65.60;;;;;;6270227;28;20041;-84
2022/12/05 07:43:14;;;;;;;11.20;4.68;;;9.30;65.70;;;;;;6301248;28;20465;-82
2022/12/05 07:46:16;;;;;;;12.77;3.42;;;9.30;65.40;;;;;;6301029;28;20044;-82
2022/12/05 07:49:17;;;;;;;5.93;2.80;;;9.40;65.30;;;;;;6268041;28;20060;-81
2022/12/05 07:52:19;;;;;;;7.00;3.30;;;9.40;64.90;;;;;;6290441;28;20043;-82
2022/12/05 07:55:20;;;;;;;7.97;3.63;;;9.40;64.70;;;;;;6276181;28;20041;-82
2022/12/05 07:58:21;;;;;;;17.45;6.97;;;9.40;64.70;;;;;;6291539;28;20039;-82
2022/12/05 08:01:24;;;;;;;9.30;4.28;;;9.40;64.60;;;;;;6277172;28;20052;-82
2022/12/05 08:04:25;;;;;;;11.10;3.92;;;9.40;64.60;;;;;;6268238;28;20353;-82
2022/12/05 08:07:26;;;;;;;10.02;4.43;;;9.40;64.40;;;;;;6266679;28;20037;-81
2022/12/05 08:10:27;;;;;;;11.80;4.00;;;9.30;64.20;;;;;;6256714;28;20060;-81
2022/12/05 08:13:28;;;;;;;9.98;3.80;;;9.30;64.30;;;;;;6280914;28;20040;-82
2022/12/05 08:16:31;;;;;;;9.43;4.25;;;9.30;64.50;;;;;;6300299;28;20040;-82
2022/12/05 08:19:31;;;;;;;14.50;4.82;;;9.30;64.50;;;;;;6289881;28;20055;-81
2022/12/05 08:22:32;;;;;;;11.40;4.75;;;9.30;64.40;;;;;;6282036;28;20041;-82
2022/12/05 08:25:33;;;;;;;10.32;5.68;;;9.30;64.40;;;;;;6247014;28;20041;-83
2022/12/05 08:28:34;;;;;;;15.77;6.22;;;9.40;64.50;;;;;;6278589;28;20033;-82
2022/12/05 08:31:47;;;;;;;14.63;7.18;;;9.40;64.50;;;;;;6299466;28;20044;-83
2022/12/05 08:34:50;;;;;;;23.30;10.30;;;9.40;64.50;;;;;;6244182;28;20124;-81
2022/12/05 08:37:52;;;;;;;12.25;6.30;;;9.50;64.60;;;;;;6288529;28;20033;-83
2022/12/05 08:40:53;;;;;;;14.10;5.82;;;9.60;64.50;;;;;;6268569;28;20055;-82
2022/12/05 08:43:55;;;;;;;16.42;7.22;;;9.60;64.30;;;;;;6278212;28;20032;-83
2022/12/05 08:46:56;;;;;;;10.15;5.18;;;9.70;64.20;;;;;;6289228;28;20033;-83
2022/12/05 08:49:57;;;;;;;12.38;6.13;;;9.70;63.90;;;;;;6266495;28;20686;-86
2022/12/05 08:52:58;;;;;;;16.30;5.85;;;9.80;63.80;;;;;;6272958;28;20045;-83
2022/12/05 08:56:04;;;;;;;12.00;5.30;;;9.70;63.70;;;;;;6270732;28;20536;-82
2022/12/05 08:59:05;;;;;;;11.48;5.38;;;9.70;63.80;;;;;;6267670;28;20503;-83
2022/12/05 09:02:09;;;;;;;11.20;5.43;;;9.70;64.00;;;;;;6279531;28;20157;-85
2022/12/05 09:05:09;;;;;;;13.27;4.50;;;9.70;64.00;;;;;;6269253;28;20052;-83
2022/12/05 09:08:11;;;;;;;10.60;5.10;;;9.60;64.00;;;;;;6266127;28;20032;-83
2022/12/05 09:11:13;;;;;;;12.38;4.93;;;9.60;64.00;;;;;;6265165;28;20029;-84
2022/12/05 09:14:14;;;;;;;11.68;5.68;;;9.60;64.00;;;;;;6266881;28;20048;-83
2022/12/05 09:17:16;;;;;;;19.70;6.22;;;9.60;64.20;;;;;;6265161;28;20037;-80
2022/12/05 09:20:17;;;;;;;15.18;4.97;;;9.70;64.10;;;;;;6306770;28;20036;-81
2022/12/05 09:23:17;;;;;;;9.15;4.00;;;9.80;64.10;;;;;;6267636;28;20061;-80
2022/12/05 09:26:22;;;;;;;10.48;4.20;;;9.90;64.00;;;;;;6246576;28;20079;-80
2022/12/05 09:29:24;;;;;;;17.13;5.47;;;10.00;63.70;;;;;;6259311;28;20080;-79
2022/12/05 09:32:25;;;;;;;12.68;5.28;;;10.10;63.40;;;;;;6273255;28;20116;-80
2022/12/05 09:35:26;;;;;;;12.13;4.90;;;10.20;63.20;;;;;;6272255;28;20041;-79
2022/12/05 09:38:27;;;;;;;10.68;4.72;;;10.40;62.70;;;;;;6288548;28;20067;-80
2022/12/05 09:45:16;;;;;;;13.30;5.65;;;10.30;62.30;;;;;;6169650;28;20385;-80
2022/12/05 09:48:21;;;;;;;19.60;6.95;;;10.30;62.00;;;;;;6184180;28;20038;-81
2022/12/05 09:51:23;;;;;;;12.13;6.75;;;10.30;62.00;;;;;;6181302;28;20065;-80
2022/12/05 09:54:26;;;;;;;14.98;6.65;;;10.50;62.10;;;;;;6197248;28;20105;-81
2022/12/05 09:57:35;;;;;;;17.98;8.27;;;10.60;62.00;;;;;;6183080;28;20034;-80
2022/12/05 10:00:36;;;;;;;19.55;8.00;;;10.70;61.60;;;;;;6210758;28;20431;-80
2022/12/05 10:03:55;;;;;;;18.90;8.73;;;10.80;61.00;;;;;;6231744;28;20033;-80
2022/12/05 10:07:15;;;;;;;20.45;8.15;;;10.70;60.80;;;;;;6223146;28;20045;-79
2022/12/05 10:10:18;;;;;;;23.25;10.20;;;10.50;60.90;;;;;;6214072;28;20101;-78
2022/12/05 10:13:43;;;;;;;21.00;9.23;;;10.50;61.50;;;;;;6189973;28;20459;-81
2022/12/05 10:16:54;;;;;;;23.38;8.35;;;10.50;61.80;;;;;;6168868;28;20054;-79
2022/12/05 10:20:02;;;;;;;35.63;13.73;;;10.50;61.90;;;;;;6200929;28;20030;-77
2022/12/05 10:23:37;;;;;;;27.67;11.70;;;10.60;62.20;;;;;;6254975;28;20033;-80
2022/12/05 10:26:53;;;;;;;22.13;9.73;;;10.80;62.10;;;;;;6240220;28;20664;-79
2022/12/05 10:30:01;;;;;;;19.42;8.20;;;11.10;61.70;;;;;;6254604;28;20347;-79
2022/12/05 10:33:10;;;;;;;19.45;7.82;;;11.30;61.30;;;;;;6268954;28;20045;-78
2022/12/05 10:36:14;;;;;;;21.30;8.30;;;11.40;60.20;;;;;;6248503;28;20144;-79
2022/12/05 10:39:15;;;;;;;18.60;8.30;;;11.40;59.80;;;;;;6277507;28;20135;-79
2022/12/05 10:42:25;;;;;;;17.67;8.65;;;11.30;59.70;;;;;;6227569;28;20096;-79
2022/12/05 10:45:26;;;;;;;23.98;9.40;;;11.40;60.30;;;;;;6274098;28;20088;-79
2022/12/05 10:48:30;;;;;;;23.33;9.75;;;11.70;60.30;;;;;;6279047;28;20402;-80
2022/12/05 10:51:32;;;;;;;24.42;10.20;;;12.00;59.70;;;;;;6257558;28;20107;-79
2022/12/05 10:54:43;;;;;;;21.85;9.30;;;12.30;59.40;;;;;;6283433;28;20041;-78
2022/12/05 10:58:08;;;;;;;21.38;9.98;;;12.80;58.60;;;;;;6277440;28;20041;-80
2022/12/05 11:01:14;;;;;;;31.25;11.45;;;13.20;57.70;;;;;;6286483;28;20052;-82
2022/12/05 11:04:25;;;;;;;18.52;8.73;;;13.60;56.60;;;;;;6287943;28;20052;-80
2022/12/05 11:07:36;;;;;;;23.50;9.13;;;13.50;55.60;;;;;;6294802;28;20043;-79
2022/12/05 11:10:39;;;;;;;16.75;7.35;;;13.40;56.20;;;;;;6270725;28;20450;-79
2022/12/05 11:13:52;;;;;;;19.30;9.45;;;13.70;55.60;;;;;;6268028;28;20047;-80
2022/12/05 11:16:58;;;;;;;18.63;8.27;;;13.70;54.80;;;;;;6244850;28;20179;-79
2022/12/05 11:19:59;;;;;;;25.42;10.15;;;14.10;54.10;;;;;;6268825;28;20039;-80
2022/12/05 11:23:21;;;;;;;25.70;9.98;;;14.50;53.30;;;;;;6261991;28;20029;-78
2022/12/05 11:26:34;;;;;;;24.83;10.52;;;15.00;52.40;;;;;;6265631;28;20048;-79
2022/12/05 11:29:37;;;;;;;34.05;11.20;;;15.40;52.00;;;;;;6251058;28;20429;-78
2022/12/05 11:32:38;;;;;;;24.88;9.65;;;15.80;51.40;;;;;;6267153;28;20461;-79
2022/12/05 11:35:40;;;;;;;29.17;9.57;;;16.20;49.80;;;;;;6266047;28;20025;-79
2022/12/05 11:38:41;;;;;;;12.68;6.35;;;16.20;49.20;;;;;;6265623;28;20121;-80
2022/12/05 11:42:02;;;;;;;12.32;6.25;;;15.80;49.10;;;;;;6252360;28;20113;-79
2022/12/05 11:45:22;;;;;;;18.50;7.65;;;15.30;49.50;;;;;;6236519;28;20099;-79
2022/12/05 11:48:39;;;;;;;14.35;7.15;;;14.70;50.30;;;;;;6265265;28;20064;-79
2022/12/05 11:52:02;;;;;;;15.45;7.40;;;14.20;51.70;;;;;;6266582;28;20033;-81
2022/12/05 11:55:21;;;;;;;15.00;7.38;;;13.90;52.40;;;;;;6243054;28;20044;-80
2022/12/05 11:59:01;;;;;;;15.75;7.00;;;13.60;53.00;;;;;;6243383;28;20033;-81
2022/12/05 12:02:02;;;;;;;14.93;7.38;;;13.50;53.40;;;;;;6221212;28;20459;-80
2022/12/05 12:05:20;;;;;;;16.42;8.27;;;13.20;53.70;;;;;;6241028;28;20117;-80
2022/12/05 12:08:27;;;;;;;18.85;6.95;;;13.10;54.10;;;;;;6223357;28;20045;-79
2022/12/05 12:11:28;;;;;;;26.92;7.65;;;13.00;54.20;;;;;;6241271;28;20033;-80
2022/12/05 12:14:37;;;;;;;14.02;6.75;;;12.80;54.20;;;;;;6225600;28;20128;-80
2022/12/05 12:18:01;;;;;;;9.77;5.05;;;12.60;54.50;;;;;;6245331;28;20037;-79
2022/12/05 12:21:17;;;;;;;17.45;6.03;;;12.40;54.70;;;;;;6231729;28;20041;-78
2022/12/05 12:24:37;;;;;;;12.02;4.85;;;12.30;55.00;;;;;;6243124;28;20083;-80
2022/12/05 12:28:08;;;;;;;14.82;5.70;;;12.20;55.10;;;;;;6241990;28;20428;-78
2022/12/05 12:31:35;;;;;;;9.05;4.75;;;12.10;55.30;;;;;;6237515;28;20112;-79
2022/12/05 12:34:49;;;;;;;10.60;6.05;;;12.20;55.40;;;;;;6211723;28;20045;-80
2022/12/05 12:38:07;;;;;;;13.15;6.05;;;12.20;55.30;;;;;;6220172;28;20099;-79
2022/12/05 12:41:41;;;;;;;15.60;6.18;;;12.20;55.20;;;;;;6251759;28;20492;-79
2022/12/05 12:44:51;;;;;;;18.13;7.63;;;12.20;55.90;;;;;;6163141;28;20514;-78
2022/12/05 12:48:08;;;;;;;23.52;8.52;;;12.30;55.40;;;;;;6166502;28;20039;-79
2022/12/05 12:51:12;;;;;;;19.15;8.40;;;12.30;55.40;;;;;;6167912;28;20046;-79
2022/12/05 12:54:24;;;;;;;18.88;8.13;;;12.40;55.60;;;;;;6191341;28;20414;-79
2022/12/05 12:57:47;;;;;;;24.73;9.93;;;12.40;55.70;;;;;;6188756;28;20045;-79
2022/12/05 13:01:14;;;;;;;22.20;8.55;;;12.40;55.90;;;;;;6134528;28;20130;-79
2022/12/05 13:04:29;;;;;;;21.60;9.55;;;12.50;56.10;;;;;;6166708;28;20105;-80
2022/12/05 13:07:41;;;;;;;21.75;8.32;;;12.50;56.20;;;;;;6166239;28;20140;-78
2022/12/05 13:10:45;;;;;;;20.90;8.52;;;12.50;56.20;;;;;;6186208;28;20038;-78
2022/12/05 13:13:58;;;;;;;19.17;8.40;;;12.50;56.20;;;;;;6178348;28;20141;-79
2022/12/05 13:17:00;;;;;;;16.13;6.95;;;12.60;56.50;;;;;;6171420;28;20038;-79
2022/12/05 13:20:02;;;;;;;22.92;8.93;;;12.70;56.30;;;;;;6193644;28;20030;-79
2022/12/05 13:23:06;;;;;;;17.70;8.27;;;12.80;55.90;;;;;;6237333;28;20071;-79
2022/12/05 13:26:10;;;;;;;18.23;8.30;;;12.90;55.80;;;;;;6249571;28;20133;-80
2022/12/05 13:29:31;;;;;;;22.55;8.90;;;13.00;55.80;;;;;;6264711;28;20037;-79
2022/12/05 13:32:35;;;;;;;19.40;9.30;;;13.00;55.60;;;;;;6284840;28;20029;-79
2022/12/05 13:42:30;;;;;;;24.17;9.07;;;13.00;55.60;;;;;;6270656;28;20056;-81
2022/12/05 13:45:33;;;;;;;17.55;7.57;;;12.80;55.80;;;;;;6266877;28;20350;-80
2022/12/05 13:48:41;;;;;;;17.70;7.85;;;12.70;56.10;;;;;;6268464;28;20135;-79
2022/12/05 13:51:46;;;;;;;39.05;11.38;;;12.60;56.20;;;;;;6266235;28;20052;-79
2022/12/05 13:55:13;;;;;;;27.88;10.38;;;12.60;56.40;;;;;;6254192;28;20042;-79
2022/12/05 13:58:23;;;;;;;19.83;8.93;;;12.60;56.60;;;;;;6236282;28;20352;-80
2022/12/05 14:01:32;;;;;;;19.08;7.90;;;12.50;56.60;;;;;;6269381;28;20025;-79
2022/12/05 14:04:49;;;;;;;26.98;8.27;;;12.60;56.70;;;;;;6265226;28;20094;-79
2022/12/05 14:07:57;;;;;;;24.75;8.23;;;12.50;57.00;;;;;;6269549;28;20048;-81
2022/12/05 14:10:58;;;;;;;17.95;8.35;;;12.50;56.70;;;;;;6264342;28;20484;-80
2022/12/05 14:13:59;;;;;;;21.20;8.40;;;12.40;56.70;;;;;;6267489;28;20037;-79
2022/12/05 14:17:01;;;;;;;17.20;7.38;;;12.30;56.70;;;;;;6270465;28;20028;-79
2022/12/05 14:20:14;;;;;;;18.65;7.57;;;12.30;56.90;;;;;;6250462;28;20037;-79
2022/12/05 14:23:32;;;;;;;22.52;9.50;;;12.20;57.10;;;;;;6265936;28;20048;-79
2022/12/05 14:26:54;;;;;;;24.80;7.95;;;12.10;57.60;;;;;;6270270;28;20106;-78
2022/12/05 14:30:24;;;;;;;20.75;8.68;;;12.10;57.30;;;;;;6282653;28;20041;-79
2022/12/05 14:33:26;;;;;;;16.00;6.80;;;12.00;57.40;;;;;;6267053;28;20040;-79
2022/12/05 14:36:30;;;;;;;17.30;7.53;;;12.00;57.50;;;;;;6269275;28;20420;-79
2022/12/05 14:39:50;;;;;;;16.05;6.28;;;12.00;57.50;;;;;;6251845;28;20125;-78
2022/12/05 14:43:02;;;;;;;17.15;6.78;;;11.90;57.60;;;;;;6263843;28;20498;-79
2022/12/05 14:46:13;;;;;;;15.77;6.88;;;12.00;57.70;;;;;;6266325;28;20068;-77
2022/12/05 14:49:50;;;;;;;18.20;6.82;;;11.90;57.70;;;;;;6267791;28;20132;-79
2022/12/05 14:53:19;;;;;;;14.43;5.85;;;11.90;57.80;;;;;;6217901;28;20046;-78
2022/12/05 14:56:24;;;;;;;17.65;6.15;;;11.90;57.90;;;;;;6239508;28;20037;-78
2022/12/05 14:59:30;;;;;;;19.25;7.32;;;11.90;57.80;;;;;;6244073;28;20032;-78
2022/12/05 15:02:37;;;;;;;18.05;6.75;;;11.90;57.80;;;;;;6244292;28;20430;-80
2022/12/05 15:05:38;;;;;;;23.13;7.95;;;11.90;57.80;;;;;;6251663;28;20057;-80
2022/12/05 15:08:46;;;;;;;22.70;8.23;;;11.90;57.90;;;;;;6243747;28;20037;-79
2022/12/05 15:11:47;;;;;;;30.05;11.18;;;11.80;57.90;;;;;;6242202;28;20033;-79
2022/12/05 15:15:04;;;;;;;28.45;9.23;;;11.70;58.00;;;;;;6242015;28;20394;-79
2022/12/05 15:18:19;;;;;;;24.25;8.15;;;11.60;58.20;;;;;;6248320;28;20136;-79
2022/12/05 15:21:49;;;;;;;19.45;7.97;;;11.60;58.30;;;;;;6267384;28;20130;-79
2022/12/05 15:24:50;;;;;;;15.35;7.30;;;11.50;58.50;;;;;;6281686;28;20036;-79
2022/12/05 15:28:00;;;;;;;17.65;6.80;;;11.50;58.60;;;;;;6271027;28;20064;-79
2022/12/05 15:31:01;;;;;;;17.17;7.22;;;11.40;58.80;;;;;;6268285;28;20036;-78
2022/12/05 15:34:14;;;;;;;21.38;7.32;;;11.30;58.60;;;;;;6270234;28;20055;-79
2022/12/05 15:37:40;;;;;;;18.75;7.85;;;11.20;58.80;;;;;;6268714;28;20040;-79
2022/12/05 15:40:46;;;;;;;29.33;8.18;;;11.20;59.00;;;;;;6268049;28;20029;-79
2022/12/05 15:43:57;;;;;;;37.40;13.85;;;11.10;59.20;;;;;;6282864;28;20045;-78
2022/12/05 15:46:58;;;;;;;30.88;9.23;;;11.10;59.30;;;;;;6265551;28;20525;-78
2022/12/05 15:49:59;;;;;;;25.52;8.65;;;11.00;59.40;;;;;;6280496;28;20072;-79
2022/12/05 15:53:14;;;;;;;21.08;7.45;;;11.00;59.50;;;;;;6234500;28;20065;-78
2022/12/05 15:56:24;;;;;;;15.98;6.85;;;11.00;59.60;;;;;;6249685;28;20370;-79
2022/12/05 15:59:46;;;;;;;17.30;7.20;;;10.90;59.60;;;;;;6257300;28;20112;-79
2022/12/05 16:02:54;;;;;;;17.98;5.93;;;10.80;59.90;;;;;;6283029;28;20098;-79
2022/12/05 16:06:00;;;;;;;13.15;6.40;;;10.70;60.10;;;;;;6272371;28;20033;-79
2022/12/05 16:09:07;;;;;;;17.58;6.00;;;10.60;60.40;;;;;;6281473;28;20029;-78
2022/12/05 16:12:30;;;;;;;22.38;7.47;;;10.50;60.60;;;;;;6273531;28;20094;-78
2022/12/05 16:15:32;;;;;;;19.08;7.88;;;10.40;60.90;;;;;;6282534;28;20365;-79
2022/12/05 16:18:33;;;;;;;21.15;8.23;;;10.40;61.10;;;;;;6266466;28;20097;-79
2022/12/05 16:21:41;;;;;;;21.65;7.05;;;10.30;61.50;;;;;;6267287;28;20453;-79
2022/12/05 16:24:55;;;;;;;16.20;7.22;;;10.30;61.50;;;;;;6266639;28;20033;-80
2022/12/05 16:28:06;;;;;;;17.73;6.78;;;10.30;61.70;;;;;;6258322;28;20032;-82